Aviation Digital Data Service (ADDS)

Output produced by METARs form (1241 UTC 22 February 2018)
found at http://www.aviationweather.gov/adds/metars/
 
UKKM 221230Z 10003MPS 9999 OVC019 M03/M07 Q1023 R15/810245 NOSIG
TAF UKKM 221104Z 2212/2312 09004MPS 9999 BKN010 BKN020 TXM03/2212Z TNM10/2305Z 
     TEMPO 2212/2216 3000 -SHSN BR BKN007 SCT015CB 
     BECMG 2216/2218 4000 BR OVC007 
     TEMPO 2218/2308 1000 BR OVC003 
     PROB40 
     TEMPO 2218/2308 0400 FZFG VV001
       
UKBB 221230Z 10003MPS 9999 BKN018 M03/M06 Q1023 R36R/190060 R36L/CLRD// NOSIG
TAF UKBB 221101Z 2212/2312 09003MPS 6000 BKN010 TXM03/2212Z TNM11/2306Z 
     TEMPO 2220/2307 2000 BR BKN006 
     PROB40 
     TEMPO 2300/2307 0600 FZFG OVC002
       
UKBB 221230Z 10003MPS 9999 BKN018 M03/M06 Q1023 R36R/190060 R36L/CLRD// NOSIG
TAF UKBB 221101Z 2212/2312 09003MPS 6000 BKN010 TXM03/2212Z TNM11/2306Z 
     TEMPO 2220/2307 2000 BR BKN006 
     PROB40 
     TEMPO 2300/2307 0600 FZFG OVC002
       
UKDD 221230Z 05007MPS 9999 FEW027 BKN100 M00/M07 Q1021 R08/090070 NOSIG
TAF UKDD 221105Z 2212/2312 06007MPS 9999 BKN015 TX00/2212Z TNM09/2302Z 
     TEMPO 2212/2221 07008G13MPS
       
UKDE 221230Z 04005MPS 9999 BKN025 M01/M05 Q1020 R02/CLRD70 NOSIG
TAF UKDE 221102Z 2212/2221 04006MPS 9999 BKN020 TXM01/2212Z TNM04/2221Z 
     TEMPO 2212/2215 08008G13MPS
       
UKDR 221230Z 07004MPS 020V110 9999 FEW025 BKN100 M01/M07 Q1021 R36/09//70 NOSIG
TAF UKDR 221108Z 2212/2312 06006MPS 9999 BKN014 TX00/2312Z TNM05/2304Z
       
UKHH 221230Z 05005MPS CAVOK M05/M11 Q1024 R07/0///66 NOSIG
TAF UKHH 221110Z 2212/2221 07006MPS 9999 BKN020 
     TEMPO 2218/2221 2100 BR BKN007 TXM04/2212Z TNM09/2221Z
       
UKKK 221230Z 08003MPS 9999 OVC016 M04/M07 Q1023 R08/290056 NOSIG
TAF UKKK 221101Z 2212/2312 10003G08MPS 6000 BKN015 TXM04/2312Z TNM10/2304Z 
     TEMPO 2212/2218 3000 -SHSN BR BKN006 SCT012CB 
     TEMPO 2218/2308 1000 BR OVC003 
     PROB40 
     TEMPO 2218/2308 0300 FZFG VV001 
     BECMG 2308/2310 09005G10MPS 9999 BKN015
       
UKKM 221230Z 10003MPS 9999 OVC019 M03/M07 Q1023 R15/810245 NOSIG
TAF UKKM 221104Z 2212/2312 09004MPS 9999 BKN010 BKN020 TXM03/2212Z TNM10/2305Z 
     TEMPO 2212/2216 3000 -SHSN BR BKN007 SCT015CB 
     BECMG 2216/2218 4000 BR OVC007 
     TEMPO 2218/2308 1000 BR OVC003 
     PROB40 
     TEMPO 2218/2308 0400 FZFG VV001
       
UKLI 221230Z 10003MPS 5000 -SG OVC009 M02/M02 Q1019 R10/410140 NOSIG
TAF UKLI 221108Z 2212/2221 09004G09MPS 4100 -SN BKN007 BKN012 TXM00/2213Z TNM03/2221Z 
     TEMPO 2212/2220 VRB02MPS 1200 -SHSN BR BKN004 BKN010CB
       
UKLL 221230Z 07005MPS 7000 -SN OVC011 M02/M05 Q1020 R13/811040 NOSIG
TAF UKLL 221103Z 2212/2312 05005G10MPS 3000 -SN BR SCT005 OVC007 
     TEMPO 2212/2215 1100 SHSN BKN003 BKN020CB 
     TEMPO 2215/2308 0400 -SHSN FZFG BKN002 BKN018CB TXM01/2213Z TNM04/2305Z
       
UKLN 221230Z 09004MPS 9999 OVC014 M02/M04 Q1020 NOSIG
TAF UKLN 221109Z 2212/2221 08005MPS 9999 BKN010 BKN030CB 
     TEMPO 2212/2221 12005MPS 2100 -SHSN BR BKN007 BKN020CB TXM01/2212Z TNM04/2221Z
       
UKLR 221230Z 09003MPS 9999 BKN009 M02/M06 Q1022 R11/////// NOSIG
TAF UKLR 221107Z 2212/2221 08003MPS 5000 BR OVC007 TXM01/2212Z TNM05/2221Z 
     TEMPO 2212/2221 11005MPS 1000 -SHSN BR BKN003 BKN010CB
       
UKLU 221230Z 06006MPS 010V090 9999 SCT100 05/M06 Q1016 R10/090070 NOSIG
TAF UKLU 221104Z 2212/2221 04005MPS 9999 BKN040 
     TEMPO 2212/2218 36006G11MPS TX06/2214Z TN00/2221Z
       
UKOH 221230Z 06006MPS 9999 BKN023 00/M06 Q1020 R03/CLRD65 NOSIG
TAF UKOH 221102Z 2212/2221 06008G14MPS 9999 BKN020 TX01/2213Z TNM03/2221Z
       
UKON 221230Z 06005MPS 020V080 9999 SCT026 OVC100 M00/M06 Q1021 NOSIG
TAF UKON 221103Z 2212/2221 06005G11MPS 9999 BKN020CB TX02/2212Z TNM02/2221Z 
     TEMPO 2212/2221 2100 -SHSN BKN007 BKN015CB
       
UKOO 221230Z 05005MPS 020V090 9999 BKN020 00/M05 Q1020 R34/090060 NOSIG
TAF UKOO 221105Z 2212/2312 06006G13MPS 6000 BKN007 SCT017CB TX00/2212Z TNM05/2304Z 
     BECMG 2216/2218 2100 -SHSN BR 
     PROB40 
     TEMPO 2218/2306 1000 SHSN BKN003 BKN015CB
       
UKWW 221200Z 08003MPS 9000 -SHSN BKN024CB OVC100 M04/M06 Q1021 R13/490145 NOSIG
TAF UKWW 221110Z 2212/2221 06005MPS 9999 BKN025 TXM03/2213Z TNM04/2221Z 
     TEMPO 2212/2215 -SHSN BKN015CB
       
UKLN 221230Z 09004MPS 9999 OVC014 M02/M04 Q1020 NOSIG
TAF UKLN 221109Z 2212/2221 08005MPS 9999 BKN010 BKN030CB 
     TEMPO 2212/2221 12005MPS 2100 -SHSN BR BKN007 BKN020CB TXM01/2212Z TNM04/2221Z
       
UKDD 221230Z 05007MPS 9999 FEW027 BKN100 M00/M07 Q1021 R08/090070 NOSIG
TAF UKDD 221105Z 2212/2312 06007MPS 9999 BKN015 TX00/2212Z TNM09/2302Z 
     TEMPO 2212/2221 07008G13MPS
       
UKLI 221230Z 10003MPS 5000 -SG OVC009 M02/M02 Q1019 R10/410140 NOSIG
TAF UKLI 221108Z 2212/2221 09004G09MPS 4100 -SN BKN007 BKN012 TXM00/2213Z TNM03/2221Z 
     TEMPO 2212/2220 VRB02MPS 1200 -SHSN BR BKN004 BKN010CB
       
UKDR 221230Z 07004MPS 020V110 9999 FEW025 BKN100 M01/M07 Q1021 R36/09//70 NOSIG
TAF UKDR 221108Z 2212/2312 06006MPS 9999 BKN014 TX00/2312Z TNM05/2304Z
       
UKLL 221230Z 07005MPS 7000 -SN OVC011 M02/M05 Q1020 R13/811040 NOSIG
TAF UKLL 221103Z 2212/2312 05005G10MPS 3000 -SN BR SCT005 OVC007 
     TEMPO 2212/2215 1100 SHSN BKN003 BKN020CB 
     TEMPO 2215/2308 0400 -SHSN FZFG BKN002 BKN018CB TXM01/2213Z TNM04/2305Z
       
UKDE 221230Z 04005MPS 9999 BKN025 M01/M05 Q1020 R02/CLRD70 NOSIG
TAF UKDE 221102Z 2212/2221 04006MPS 9999 BKN020 TXM01/2212Z TNM04/2221Z 
     TEMPO 2212/2215 08008G13MPS
       
UKON 221230Z 06005MPS 020V080 9999 SCT026 OVC100 M00/M06 Q1021 NOSIG
TAF UKON 221103Z 2212/2221 06005G11MPS 9999 BKN020CB TX02/2212Z TNM02/2221Z 
     TEMPO 2212/2221 2100 -SHSN BKN007 BKN015CB
       
UKOO 221230Z 05005MPS 020V090 9999 BKN020 00/M05 Q1020 R34/090060 NOSIG
TAF UKOO 221105Z 2212/2312 06006G13MPS 6000 BKN007 SCT017CB TX00/2212Z TNM05/2304Z 
     BECMG 2216/2218 2100 -SHSN BR 
     PROB40 
     TEMPO 2218/2306 1000 SHSN BKN003 BKN015CB
       
UKHH 221230Z 05005MPS CAVOK M05/M11 Q1024 R07/0///66 NOSIG
TAF UKHH 221110Z 2212/2221 07006MPS 9999 BKN020 
     TEMPO 2218/2221 2100 BR BKN007 TXM04/2212Z TNM09/2221Z
       
UKLR 221230Z 09003MPS 9999 BKN009 M02/M06 Q1022 R11/////// NOSIG
TAF UKLR 221107Z 2212/2221 08003MPS 5000 BR OVC007 TXM01/2212Z TNM05/2221Z 
     TEMPO 2212/2221 11005MPS 1000 -SHSN BR BKN003 BKN010CB
       
UKLU 221230Z 06006MPS 010V090 9999 SCT100 05/M06 Q1016 R10/090070 NOSIG
TAF UKLU 221104Z 2212/2221 04005MPS 9999 BKN040 
     TEMPO 2212/2218 36006G11MPS TX06/2214Z TN00/2221Z
       
UKKK 221230Z 08003MPS 9999 OVC016 M04/M07 Q1023 R08/290056 NOSIG
TAF UKKK 221101Z 2212/2312 10003G08MPS 6000 BKN015 TXM04/2312Z TNM10/2304Z 
     TEMPO 2212/2218 3000 -SHSN BR BKN006 SCT012CB 
     TEMPO 2218/2308 1000 BR OVC003 
     PROB40 
     TEMPO 2218/2308 0300 FZFG VV001 
     BECMG 2308/2310 09005G10MPS 9999 BKN015